< < Back
Terminal Aerodrome Forecast


Current Version              Previous Versions:   1  2  3  4  5  6  7  8  9  

Terminal Aerodrome Forecast

032
FTUS42 KGSP 061722
TAFAVL
TAF
KAVL 061722Z 0618/0718 16006KT P6SM FEW250
     FM070300 34003KT P6SM FEW250
     FM071000 00000KT 4SM BR FEW250
     FM071200 00000KT P6SM FEW250=



Latest METAR

640
SAUS70 KWBC 070400 RRL
MTRAVL
METAR KAVL 070354Z AUTO 00000KT 10SM OVC110 16/11 A3022 RMK AO2 SLP211
T01560111


USA.gov is the U.S. government's official web portal to all federal, state and local government web resources and services.